sensor_id;sensor_type;location;lat;lon;timestamp;P1;durP1;ratioP1;P2;durP2;ratioP2
51252;SDS011;38936;47.808;19.936;2022-07-29T00:01:46;5.57;;;2.88;;
51252;SDS011;38936;47.808;19.936;2022-07-29T00:04:12;6.20;;;3.22;;
51252;SDS011;38936;47.808;19.936;2022-07-29T00:06:37;4.25;;;2.53;;
51252;SDS011;38936;47.808;19.936;2022-07-29T00:09:03;7.00;;;3.05;;
51252;SDS011;38936;47.808;19.936;2022-07-29T00:11:29;4.07;;;3.08;;
51252;SDS011;38936;47.808;19.936;2022-07-29T00:13:55;5.15;;;3.10;;
51252;SDS011;38936;47.808;19.936;2022-07-29T00:16:21;6.60;;;3.58;;
51252;SDS011;38936;47.808;19.936;2022-07-29T00:18:46;5.47;;;3.00;;
51252;SDS011;38936;47.808;19.936;2022-07-29T00:21:12;8.48;;;4.50;;
51252;SDS011;38936;47.808;19.936;2022-07-29T00:23:38;4.97;;;3.25;;
51252;SDS011;38936;47.808;19.936;2022-07-29T00:26:03;13.90;;;3.00;;
51252;SDS011;38936;47.808;19.936;2022-07-29T00:28:29;5.10;;;3.03;;
51252;SDS011;38936;47.808;19.936;2022-07-29T00:30:55;6.38;;;3.22;;
51252;SDS011;38936;47.808;19.936;2022-07-29T00:33:20;7.13;;;3.17;;
51252;SDS011;38936;47.808;19.936;2022-07-29T00:35:47;3.97;;;3.15;;
51252;SDS011;38936;47.808;19.936;2022-07-29T00:38:16;7.32;;;3.35;;
51252;SDS011;38936;47.808;19.936;2022-07-29T00:40:43;5.72;;;3.10;;
51252;SDS011;38936;47.808;19.936;2022-07-29T00:43:10;5.43;;;3.20;;
51252;SDS011;38936;47.808;19.936;2022-07-29T00:45:38;5.93;;;3.50;;
51252;SDS011;38936;47.808;19.936;2022-07-29T00:48:04;3.90;;;3.17;;
51252;SDS011;38936;47.808;19.936;2022-07-29T00:50:31;6.38;;;3.25;;
51252;SDS011;38936;47.808;19.936;2022-07-29T00:52:58;8.07;;;2.95;;
51252;SDS011;38936;47.808;19.936;2022-07-29T00:55:24;6.05;;;3.05;;
51252;SDS011;38936;47.808;19.936;2022-07-29T00:57:50;6.47;;;3.20;;
51252;SDS011;38936;47.808;19.936;2022-07-29T01:00:18;5.47;;;3.22;;
51252;SDS011;38936;47.808;19.936;2022-07-29T01:02:46;5.97;;;2.80;;
51252;SDS011;38936;47.808;19.936;2022-07-29T01:05:13;3.22;;;2.65;;
51252;SDS011;38936;47.808;19.936;2022-07-29T01:07:41;5.20;;;3.05;;
51252;SDS011;38936;47.808;19.936;2022-07-29T01:10:07;4.30;;;2.83;;
51252;SDS011;38936;47.808;19.936;2022-07-29T01:12:35;4.25;;;2.38;;
51252;SDS011;38936;47.808;19.936;2022-07-29T01:15:03;3.80;;;2.95;;
51252;SDS011;38936;47.808;19.936;2022-07-29T01:17:45;4.57;;;3.03;;
51252;SDS011;38936;47.808;19.936;2022-07-29T01:29:11;9.52;;;3.47;;
51252;SDS011;38936;47.808;19.936;2022-07-29T01:31:45;5.10;;;3.15;;
51252;SDS011;38936;47.808;19.936;2022-07-29T01:34:21;6.13;;;2.90;;
51252;SDS011;38936;47.808;19.936;2022-07-29T01:36:52;7.25;;;3.45;;
51252;SDS011;38936;47.808;19.936;2022-07-29T01:39:27;5.10;;;3.08;;
51252;SDS011;38936;47.808;19.936;2022-07-29T01:44:39;19.65;;;3.53;;
51252;SDS011;38936;47.808;19.936;2022-07-29T01:47:19;3.92;;;2.42;;
51252;SDS011;38936;47.808;19.936;2022-07-29T01:49:51;8.75;;;2.38;;
51252;SDS011;38936;47.808;19.936;2022-07-29T01:52:24;4.35;;;2.72;;
51252;SDS011;38936;47.808;19.936;2022-07-29T01:55:04;3.33;;;2.38;;
51252;SDS011;38936;47.808;19.936;2022-07-29T01:57:36;5.13;;;2.75;;
51252;SDS011;38936;47.808;19.936;2022-07-29T02:00:06;5.60;;;3.15;;
51252;SDS011;38936;47.808;19.936;2022-07-29T02:02:32;4.72;;;2.42;;
51252;SDS011;38936;47.808;19.936;2022-07-29T02:05:00;3.17;;;2.13;;
51252;SDS011;38936;47.808;19.936;2022-07-29T02:07:27;4.70;;;2.42;;
51252;SDS011;38936;47.808;19.936;2022-07-29T02:09:56;6.28;;;2.17;;
51252;SDS011;38936;47.808;19.936;2022-07-29T02:12:23;3.88;;;2.42;;
51252;SDS011;38936;47.808;19.936;2022-07-29T02:14:51;5.57;;;2.60;;
51252;SDS011;38936;47.808;19.936;2022-07-29T02:17:26;2.83;;;2.15;;
51252;SDS011;38936;47.808;19.936;2022-07-29T02:19:56;4.80;;;2.55;;
51252;SDS011;38936;47.808;19.936;2022-07-29T02:22:25;6.13;;;2.72;;
51252;SDS011;38936;47.808;19.936;2022-07-29T02:24:54;5.75;;;3.17;;
51252;SDS011;38936;47.808;19.936;2022-07-29T02:27:20;4.95;;;2.45;;
51252;SDS011;38936;47.808;19.936;2022-07-29T02:29:48;6.32;;;2.83;;
51252;SDS011;38936;47.808;19.936;2022-07-29T02:32:15;7.25;;;2.38;;
51252;SDS011;38936;47.808;19.936;2022-07-29T02:34:42;4.13;;;2.15;;
51252;SDS011;38936;47.808;19.936;2022-07-29T02:37:11;3.75;;;2.20;;
51252;SDS011;38936;47.808;19.936;2022-07-29T02:39:40;4.03;;;2.25;;
51252;SDS011;38936;47.808;19.936;2022-07-29T02:42:10;3.95;;;2.40;;
51252;SDS011;38936;47.808;19.936;2022-07-29T02:44:39;5.05;;;2.70;;
51252;SDS011;38936;47.808;19.936;2022-07-29T02:47:19;3.63;;;2.35;;
51252;SDS011;38936;47.808;19.936;2022-07-29T02:50:26;6.75;;;2.55;;
51252;SDS011;38936;47.808;19.936;2022-07-29T02:52:58;7.25;;;2.40;;
51252;SDS011;38936;47.808;19.936;2022-07-29T02:55:40;2.92;;;2.17;;
51252;SDS011;38936;47.808;19.936;2022-07-29T02:58:15;6.38;;;2.85;;
51252;SDS011;38936;47.808;19.936;2022-07-29T03:00:58;3.58;;;2.53;;
51252;SDS011;38936;47.808;19.936;2022-07-29T03:03:28;4.25;;;2.50;;
51252;SDS011;38936;47.808;19.936;2022-07-29T03:05:56;3.40;;;2.25;;
51252;SDS011;38936;47.808;19.936;2022-07-29T03:08:24;5.97;;;2.53;;
51252;SDS011;38936;47.808;19.936;2022-07-29T03:10:52;3.83;;;2.40;;
51252;SDS011;38936;47.808;19.936;2022-07-29T03:13:19;3.13;;;2.08;;
51252;SDS011;38936;47.808;19.936;2022-07-29T03:15:45;6.47;;;2.38;;
51252;SDS011;38936;47.808;19.936;2022-07-29T03:18:12;8.90;;;2.25;;
51252;SDS011;38936;47.808;19.936;2022-07-29T03:20:39;4.70;;;2.17;;
51252;SDS011;38936;47.808;19.936;2022-07-29T03:23:05;5.03;;;2.30;;
51252;SDS011;38936;47.808;19.936;2022-07-29T03:25:31;5.25;;;2.53;;
51252;SDS011;38936;47.808;19.936;2022-07-29T03:27:57;5.22;;;2.17;;
51252;SDS011;38936;47.808;19.936;2022-07-29T03:30:22;5.05;;;2.35;;
51252;SDS011;38936;47.808;19.936;2022-07-29T03:32:49;8.13;;;2.25;;
51252;SDS011;38936;47.808;19.936;2022-07-29T03:35:15;11.00;;;2.90;;
51252;SDS011;38936;47.808;19.936;2022-07-29T03:37:44;5.07;;;2.58;;
51252;SDS011;38936;47.808;19.936;2022-07-29T03:40:11;5.38;;;2.50;;
51252;SDS011;38936;47.808;19.936;2022-07-29T03:42:44;2.72;;;2.35;;
51252;SDS011;38936;47.808;19.936;2022-07-29T03:45:12;4.65;;;2.10;;
51252;SDS011;38936;47.808;19.936;2022-07-29T03:47:47;2.97;;;1.98;;
51252;SDS011;38936;47.808;19.936;2022-07-29T03:50:16;3.85;;;2.13;;
51252;SDS011;38936;47.808;19.936;2022-07-29T03:52:44;8.90;;;2.40;;
51252;SDS011;38936;47.808;19.936;2022-07-29T03:55:10;4.68;;;2.00;;
51252;SDS011;38936;47.808;19.936;2022-07-29T03:57:37;6.82;;;2.33;;
51252;SDS011;38936;47.808;19.936;2022-07-29T04:00:05;5.43;;;2.33;;
51252;SDS011;38936;47.808;19.936;2022-07-29T04:02:32;3.88;;;2.03;;
51252;SDS011;38936;47.808;19.936;2022-07-29T04:04:58;9.55;;;2.50;;
51252;SDS011;38936;47.808;19.936;2022-07-29T04:07:24;4.03;;;2.10;;
51252;SDS011;38936;47.808;19.936;2022-07-29T04:09:49;7.60;;;2.47;;
51252;SDS011;38936;47.808;19.936;2022-07-29T04:12:15;3.22;;;2.40;;
51252;SDS011;38936;47.808;19.936;2022-07-29T04:14:41;5.10;;;2.72;;
51252;SDS011;38936;47.808;19.936;2022-07-29T04:17:06;8.40;;;2.58;;
51252;SDS011;38936;47.808;19.936;2022-07-29T04:19:32;4.13;;;2.10;;
51252;SDS011;38936;47.808;19.936;2022-07-29T04:21:58;4.85;;;2.20;;
51252;SDS011;38936;47.808;19.936;2022-07-29T04:24:25;4.65;;;2.10;;
51252;SDS011;38936;47.808;19.936;2022-07-29T04:26:51;4.63;;;2.20;;
51252;SDS011;38936;47.808;19.936;2022-07-29T04:29:16;3.25;;;2.03;;
51252;SDS011;38936;47.808;19.936;2022-07-29T04:31:42;4.38;;;2.03;;
51252;SDS011;38936;47.808;19.936;2022-07-29T04:34:09;3.45;;;2.13;;
51252;SDS011;38936;47.808;19.936;2022-07-29T04:36:35;4.45;;;2.13;;
51252;SDS011;38936;47.808;19.936;2022-07-29T04:39:01;3.58;;;2.58;;
51252;SDS011;38936;47.808;19.936;2022-07-29T04:41:27;4.13;;;1.88;;
51252;SDS011;38936;47.808;19.936;2022-07-29T04:43:53;2.97;;;1.95;;
51252;SDS011;38936;47.808;19.936;2022-07-29T04:46:19;4.22;;;2.28;;
51252;SDS011;38936;47.808;19.936;2022-07-29T04:48:45;4.35;;;2.28;;
51252;SDS011;38936;47.808;19.936;2022-07-29T04:51:11;5.18;;;1.90;;
51252;SDS011;38936;47.808;19.936;2022-07-29T04:53:37;6.28;;;2.10;;
51252;SDS011;38936;47.808;19.936;2022-07-29T04:56:03;5.57;;;1.95;;
51252;SDS011;38936;47.808;19.936;2022-07-29T04:58:29;4.18;;;1.92;;
51252;SDS011;38936;47.808;19.936;2022-07-29T05:00:54;5.00;;;2.20;;
51252;SDS011;38936;47.808;19.936;2022-07-29T05:03:20;3.83;;;2.00;;
51252;SDS011;38936;47.808;19.936;2022-07-29T05:05:46;7.30;;;1.90;;
51252;SDS011;38936;47.808;19.936;2022-07-29T05:08:11;3.38;;;2.25;;
51252;SDS011;38936;47.808;19.936;2022-07-29T05:10:37;4.78;;;2.17;;
51252;SDS011;38936;47.808;19.936;2022-07-29T05:13:06;3.17;;;2.00;;
51252;SDS011;38936;47.808;19.936;2022-07-29T05:15:33;5.35;;;2.10;;
51252;SDS011;38936;47.808;19.936;2022-07-29T05:17:59;4.95;;;2.22;;
51252;SDS011;38936;47.808;19.936;2022-07-29T05:20:25;5.80;;;2.55;;
51252;SDS011;38936;47.808;19.936;2022-07-29T05:22:57;4.18;;;2.05;;
51252;SDS011;38936;47.808;19.936;2022-07-29T05:25:24;3.47;;;2.17;;
51252;SDS011;38936;47.808;19.936;2022-07-29T05:27:51;4.03;;;1.90;;
51252;SDS011;38936;47.808;19.936;2022-07-29T05:30:16;3.60;;;2.15;;
51252;SDS011;38936;47.808;19.936;2022-07-29T05:32:42;12.55;;;2.40;;
51252;SDS011;38936;47.808;19.936;2022-07-29T05:35:08;7.07;;;2.03;;
51252;SDS011;38936;47.808;19.936;2022-07-29T05:37:34;6.65;;;2.05;;
51252;SDS011;38936;47.808;19.936;2022-07-29T05:39:59;5.38;;;2.00;;
51252;SDS011;38936;47.808;19.936;2022-07-29T05:42:25;7.35;;;2.60;;
51252;SDS011;38936;47.808;19.936;2022-07-29T05:44:51;4.60;;;2.05;;
51252;SDS011;38936;47.808;19.936;2022-07-29T05:47:17;3.22;;;1.98;;
51252;SDS011;38936;47.808;19.936;2022-07-29T05:49:43;4.05;;;2.22;;
51252;SDS011;38936;47.808;19.936;2022-07-29T05:52:09;4.10;;;2.45;;
51252;SDS011;38936;47.808;19.936;2022-07-29T05:54:35;7.13;;;2.65;;
51252;SDS011;38936;47.808;19.936;2022-07-29T05:57:01;5.82;;;2.08;;
51252;SDS011;38936;47.808;19.936;2022-07-29T05:59:28;8.80;;;2.55;;
51252;SDS011;38936;47.808;19.936;2022-07-29T06:01:54;4.47;;;2.10;;
51252;SDS011;38936;47.808;19.936;2022-07-29T06:04:19;4.78;;;2.63;;
51252;SDS011;38936;47.808;19.936;2022-07-29T06:06:45;7.75;;;1.77;;
51252;SDS011;38936;47.808;19.936;2022-07-29T06:09:11;9.32;;;1.83;;
51252;SDS011;38936;47.808;19.936;2022-07-29T06:11:37;5.95;;;1.95;;
51252;SDS011;38936;47.808;19.936;2022-07-29T06:14:02;8.15;;;2.20;;
51252;SDS011;38936;47.808;19.936;2022-07-29T06:16:28;7.03;;;2.22;;
51252;SDS011;38936;47.808;19.936;2022-07-29T06:18:54;4.28;;;2.00;;
51252;SDS011;38936;47.808;19.936;2022-07-29T06:21:19;7.70;;;2.33;;
51252;SDS011;38936;47.808;19.936;2022-07-29T06:23:46;8.55;;;2.38;;
51252;SDS011;38936;47.808;19.936;2022-07-29T06:26:12;7.95;;;2.15;;
51252;SDS011;38936;47.808;19.936;2022-07-29T06:28:38;4.72;;;2.30;;
51252;SDS011;38936;47.808;19.936;2022-07-29T06:31:04;7.40;;;1.92;;
51252;SDS011;38936;47.808;19.936;2022-07-29T06:33:30;7.07;;;2.40;;
51252;SDS011;38936;47.808;19.936;2022-07-29T06:35:56;4.45;;;2.13;;
51252;SDS011;38936;47.808;19.936;2022-07-29T06:38:22;7.07;;;2.08;;
51252;SDS011;38936;47.808;19.936;2022-07-29T06:40:47;4.43;;;2.58;;
51252;SDS011;38936;47.808;19.936;2022-07-29T06:43:34;6.13;;;2.08;;
51252;SDS011;38936;47.808;19.936;2022-07-29T06:46:03;5.85;;;1.77;;
51252;SDS011;38936;47.808;19.936;2022-07-29T06:48:30;5.20;;;1.83;;
51252;SDS011;38936;47.808;19.936;2022-07-29T06:50:56;3.78;;;1.77;;
51252;SDS011;38936;47.808;19.936;2022-07-29T06:53:22;7.97;;;2.17;;
51252;SDS011;38936;47.808;19.936;2022-07-29T06:55:48;6.47;;;1.98;;
51252;SDS011;38936;47.808;19.936;2022-07-29T06:58:14;8.27;;;2.00;;
51252;SDS011;38936;47.808;19.936;2022-07-29T07:00:42;5.07;;;1.98;;
51252;SDS011;38936;47.808;19.936;2022-07-29T07:03:10;6.63;;;2.03;;
51252;SDS011;38936;47.808;19.936;2022-07-29T07:05:35;5.38;;;1.70;;
51252;SDS011;38936;47.808;19.936;2022-07-29T07:08:01;4.47;;;1.90;;
51252;SDS011;38936;47.808;19.936;2022-07-29T07:10:27;4.15;;;2.00;;
51252;SDS011;38936;47.808;19.936;2022-07-29T07:12:53;6.07;;;2.20;;
51252;SDS011;38936;47.808;19.936;2022-07-29T07:15:19;5.18;;;2.38;;
51252;SDS011;38936;47.808;19.936;2022-07-29T07:17:48;4.40;;;1.88;;
51252;SDS011;38936;47.808;19.936;2022-07-29T07:20:14;6.40;;;2.20;;
51252;SDS011;38936;47.808;19.936;2022-07-29T07:22:43;5.15;;;2.05;;
51252;SDS011;38936;47.808;19.936;2022-07-29T07:25:09;6.50;;;1.80;;
51252;SDS011;38936;47.808;19.936;2022-07-29T07:27:35;3.45;;;2.30;;
51252;SDS011;38936;47.808;19.936;2022-07-29T07:30:02;4.35;;;2.15;;
51252;SDS011;38936;47.808;19.936;2022-07-29T07:32:30;6.60;;;2.00;;
51252;SDS011;38936;47.808;19.936;2022-07-29T07:34:56;8.75;;;2.33;;
51252;SDS011;38936;47.808;19.936;2022-07-29T07:37:23;4.63;;;1.77;;
51252;SDS011;38936;47.808;19.936;2022-07-29T07:39:49;4.97;;;2.15;;
51252;SDS011;38936;47.808;19.936;2022-07-29T07:42:16;5.93;;;2.00;;
51252;SDS011;38936;47.808;19.936;2022-07-29T07:44:42;6.13;;;2.17;;
51252;SDS011;38936;47.808;19.936;2022-07-29T07:47:08;5.45;;;1.85;;
51252;SDS011;38936;47.808;19.936;2022-07-29T07:49:34;8.68;;;2.00;;
51252;SDS011;38936;47.808;19.936;2022-07-29T07:51:59;4.88;;;1.80;;
51252;SDS011;38936;47.808;19.936;2022-07-29T07:54:25;7.35;;;1.90;;
51252;SDS011;38936;47.808;19.936;2022-07-29T07:56:51;3.42;;;2.03;;
51252;SDS011;38936;47.808;19.936;2022-07-29T07:59:16;4.03;;;1.83;;
51252;SDS011;38936;47.808;19.936;2022-07-29T08:01:42;5.97;;;2.20;;
51252;SDS011;38936;47.808;19.936;2022-07-29T08:04:08;8.80;;;2.08;;
51252;SDS011;38936;47.808;19.936;2022-07-29T08:06:34;5.53;;;2.72;;
51252;SDS011;38936;47.808;19.936;2022-07-29T08:09:01;9.05;;;2.40;;
51252;SDS011;38936;47.808;19.936;2022-07-29T08:11:28;6.30;;;3.03;;
51252;SDS011;38936;47.808;19.936;2022-07-29T08:13:54;11.50;;;2.97;;
51252;SDS011;38936;47.808;19.936;2022-07-29T08:16:20;7.60;;;2.05;;
51252;SDS011;38936;47.808;19.936;2022-07-29T08:18:45;3.97;;;2.25;;
51252;SDS011;38936;47.808;19.936;2022-07-29T08:21:11;4.05;;;2.20;;
51252;SDS011;38936;47.808;19.936;2022-07-29T08:23:38;4.97;;;2.03;;
51252;SDS011;38936;47.808;19.936;2022-07-29T08:26:05;5.57;;;2.72;;
51252;SDS011;38936;47.808;19.936;2022-07-29T08:28:36;4.75;;;2.30;;
51252;SDS011;38936;47.808;19.936;2022-07-29T08:31:05;9.40;;;2.60;;
51252;SDS011;38936;47.808;19.936;2022-07-29T08:33:32;8.23;;;2.72;;
51252;SDS011;38936;47.808;19.936;2022-07-29T08:35:58;6.00;;;2.30;;
51252;SDS011;38936;47.808;19.936;2022-07-29T08:38:24;5.68;;;2.80;;
51252;SDS011;38936;47.808;19.936;2022-07-29T08:40:51;8.10;;;3.13;;
51252;SDS011;38936;47.808;19.936;2022-07-29T08:43:18;4.80;;;2.20;;
51252;SDS011;38936;47.808;19.936;2022-07-29T08:45:50;6.85;;;3.15;;
51252;SDS011;38936;47.808;19.936;2022-07-29T08:48:20;16.70;;;2.85;;
51252;SDS011;38936;47.808;19.936;2022-07-29T08:50:47;8.93;;;3.38;;
51252;SDS011;38936;47.808;19.936;2022-07-29T08:53:17;13.43;;;3.85;;
51252;SDS011;38936;47.808;19.936;2022-07-29T08:55:44;14.10;;;4.38;;
51252;SDS011;38936;47.808;19.936;2022-07-29T08:58:12;16.05;;;3.80;;
51252;SDS011;38936;47.808;19.936;2022-07-29T09:00:41;8.88;;;2.95;;
51252;SDS011;38936;47.808;19.936;2022-07-29T09:03:14;14.68;;;3.85;;
51252;SDS011;38936;47.808;19.936;2022-07-29T09:05:42;22.48;;;3.45;;
51252;SDS011;38936;47.808;19.936;2022-07-29T09:08:10;11.57;;;3.38;;
51252;SDS011;38936;47.808;19.936;2022-07-29T09:10:37;9.63;;;2.97;;
51252;SDS011;38936;47.808;19.936;2022-07-29T09:13:03;5.93;;;2.90;;
51252;SDS011;38936;47.808;19.936;2022-07-29T09:15:29;11.85;;;4.20;;
51252;SDS011;38936;47.808;19.936;2022-07-29T09:17:54;11.93;;;2.50;;
51252;SDS011;38936;47.808;19.936;2022-07-29T09:20:22;4.00;;;1.45;;
51252;SDS011;38936;47.808;19.936;2022-07-29T09:22:48;7.78;;;2.20;;
51252;SDS011;38936;47.808;19.936;2022-07-29T09:28:17;4.55;;;2.45;;
51252;SDS011;38936;47.808;19.936;2022-07-29T09:30:53;7.13;;;2.92;;
51252;SDS011;38936;47.808;19.936;2022-07-29T09:33:23;6.45;;;2.53;;
51252;SDS011;38936;47.808;19.936;2022-07-29T09:36:03;14.52;;;3.03;;
51252;SDS011;38936;47.808;19.936;2022-07-29T09:38:30;7.03;;;2.03;;
51252;SDS011;38936;47.808;19.936;2022-07-29T09:40:57;11.32;;;2.63;;
51252;SDS011;38936;47.808;19.936;2022-07-29T09:43:26;7.15;;;2.80;;
51252;SDS011;38936;47.808;19.936;2022-07-29T09:45:52;8.60;;;2.47;;
51252;SDS011;38936;47.808;19.936;2022-07-29T09:48:19;10.35;;;2.00;;
51252;SDS011;38936;47.808;19.936;2022-07-29T09:50:49;6.22;;;2.75;;
51252;SDS011;38936;47.808;19.936;2022-07-29T09:53:32;15.13;;;2.60;;
51252;SDS011;38936;47.808;19.936;2022-07-29T09:56:02;6.82;;;2.67;;
51252;SDS011;38936;47.808;19.936;2022-07-29T09:58:29;6.30;;;2.22;;
51252;SDS011;38936;47.808;19.936;2022-07-29T10:00:55;6.65;;;2.05;;
51252;SDS011;38936;47.808;19.936;2022-07-29T10:03:21;14.55;;;3.15;;
51252;SDS011;38936;47.808;19.936;2022-07-29T10:06:30;7.18;;;2.65;;
51252;SDS011;38936;47.808;19.936;2022-07-29T10:08:38;11.60;;;2.40;;
51252;SDS011;38936;47.808;19.936;2022-07-29T10:13:38;11.63;;;2.45;;
51252;SDS011;38936;47.808;19.936;2022-07-29T10:16:06;8.43;;;2.28;;
51252;SDS011;38936;47.808;19.936;2022-07-29T10:18:32;4.90;;;2.20;;
51252;SDS011;38936;47.808;19.936;2022-07-29T10:20:58;4.43;;;2.28;;
51252;SDS011;38936;47.808;19.936;2022-07-29T10:23:28;7.65;;;2.10;;
51252;SDS011;38936;47.808;19.936;2022-07-29T10:25:54;4.28;;;2.03;;
51252;SDS011;38936;47.808;19.936;2022-07-29T10:28:20;9.77;;;2.03;;
51252;SDS011;38936;47.808;19.936;2022-07-29T10:30:46;9.68;;;2.40;;
51252;SDS011;38936;47.808;19.936;2022-07-29T10:38:51;4.78;;;1.88;;
51252;SDS011;38936;47.808;19.936;2022-07-29T10:44:09;10.80;;;2.80;;
51252;SDS011;38936;47.808;19.936;2022-07-29T10:46:45;7.90;;;2.47;;
51252;SDS011;38936;47.808;19.936;2022-07-29T10:54:42;10.85;;;2.97;;
51252;SDS011;38936;47.808;19.936;2022-07-29T11:07:35;6.68;;;2.10;;
51252;SDS011;38936;47.808;19.936;2022-07-29T11:15:09;4.15;;;1.88;;
51252;SDS011;38936;47.808;19.936;2022-07-29T11:23:24;11.70;;;2.83;;
51252;SDS011;38936;47.808;19.936;2022-07-29T11:28:48;16.45;;;2.22;;
51252;SDS011;38936;47.808;19.936;2022-07-29T11:31:33;8.90;;;1.75;;
51252;SDS011;38936;47.808;19.936;2022-07-29T11:34:20;7.05;;;1.60;;
51252;SDS011;38936;47.808;19.936;2022-07-29T11:39:40;5.43;;;1.77;;
51252;SDS011;38936;47.808;19.936;2022-07-29T11:47:30;15.73;;;1.92;;
51252;SDS011;38936;47.808;19.936;2022-07-29T11:49:59;8.18;;;1.95;;
51252;SDS011;38936;47.808;19.936;2022-07-29T11:52:39;7.82;;;2.22;;
51252;SDS011;38936;47.808;19.936;2022-07-29T11:55:11;5.25;;;1.90;;
51252;SDS011;38936;47.808;19.936;2022-07-29T11:57:46;4.63;;;1.67;;
51252;SDS011;38936;47.808;19.936;2022-07-29T12:00:19;10.48;;;2.30;;
51252;SDS011;38936;47.808;19.936;2022-07-29T12:02:50;13.50;;;2.30;;
51252;SDS011;38936;47.808;19.936;2022-07-29T12:05:17;9.65;;;1.85;;
51252;SDS011;38936;47.808;19.936;2022-07-29T12:07:43;8.07;;;2.35;;
51252;SDS011;38936;47.808;19.936;2022-07-29T12:10:09;9.52;;;1.90;;
51252;SDS011;38936;47.808;19.936;2022-07-29T12:12:35;2.97;;;1.77;;
51252;SDS011;38936;47.808;19.936;2022-07-29T12:15:11;3.55;;;2.00;;
51252;SDS011;38936;47.808;19.936;2022-07-29T12:17:37;5.75;;;2.28;;
51252;SDS011;38936;47.808;19.936;2022-07-29T12:20:04;12.52;;;2.25;;
51252;SDS011;38936;47.808;19.936;2022-07-29T12:22:31;2.10;;;1.70;;
51252;SDS011;38936;47.808;19.936;2022-07-29T12:25:11;9.73;;;2.08;;
51252;SDS011;38936;47.808;19.936;2022-07-29T12:27:40;6.57;;;1.88;;
51252;SDS011;38936;47.808;19.936;2022-07-29T12:30:09;2.70;;;1.83;;
51252;SDS011;38936;47.808;19.936;2022-07-29T12:32:37;5.20;;;1.90;;
51252;SDS011;38936;47.808;19.936;2022-07-29T12:35:08;2.83;;;2.03;;
51252;SDS011;38936;47.808;19.936;2022-07-29T12:37:38;7.75;;;1.95;;
51252;SDS011;38936;47.808;19.936;2022-07-29T12:40:06;5.75;;;2.13;;
51252;SDS011;38936;47.808;19.936;2022-07-29T12:42:33;8.20;;;2.03;;
51252;SDS011;38936;47.808;19.936;2022-07-29T12:44:59;5.72;;;1.70;;
51252;SDS011;38936;47.808;19.936;2022-07-29T12:47:26;5.35;;;2.38;;
51252;SDS011;38936;47.808;19.936;2022-07-29T12:50:07;10.95;;;2.28;;
51252;SDS011;38936;47.808;19.936;2022-07-29T12:52:34;7.55;;;2.00;;
51252;SDS011;38936;47.808;19.936;2022-07-29T12:55:00;5.10;;;1.88;;
51252;SDS011;38936;47.808;19.936;2022-07-29T12:57:27;5.70;;;2.25;;
51252;SDS011;38936;47.808;19.936;2022-07-29T13:02:27;5.50;;;1.90;;
51252;SDS011;38936;47.808;19.936;2022-07-29T13:04:57;10.43;;;2.10;;
51252;SDS011;38936;47.808;19.936;2022-07-29T13:07:27;4.10;;;2.28;;
51252;SDS011;38936;47.808;19.936;2022-07-29T13:09:57;6.55;;;1.88;;
51252;SDS011;38936;47.808;19.936;2022-07-29T13:13:00;2.60;;;1.88;;
51252;SDS011;38936;47.808;19.936;2022-07-29T13:15:27;3.90;;;2.53;;
51252;SDS011;38936;47.808;19.936;2022-07-29T13:17:53;8.85;;;2.13;;
51252;SDS011;38936;47.808;19.936;2022-07-29T13:20:22;4.07;;;2.00;;
51252;SDS011;38936;47.808;19.936;2022-07-29T13:22:49;3.25;;;1.95;;
51252;SDS011;38936;47.808;19.936;2022-07-29T13:25:22;10.52;;;2.17;;
51252;SDS011;38936;47.808;19.936;2022-07-29T13:27:49;5.85;;;2.03;;
51252;SDS011;38936;47.808;19.936;2022-07-29T13:30:15;5.93;;;1.58;;
51252;SDS011;38936;47.808;19.936;2022-07-29T13:32:40;3.70;;;1.83;;
51252;SDS011;38936;47.808;19.936;2022-07-29T13:35:07;6.88;;;2.10;;
51252;SDS011;38936;47.808;19.936;2022-07-29T13:37:33;10.93;;;1.90;;
51252;SDS011;38936;47.808;19.936;2022-07-29T13:40:03;6.68;;;1.80;;
51252;SDS011;38936;47.808;19.936;2022-07-29T13:42:29;8.73;;;2.22;;
51252;SDS011;38936;47.808;19.936;2022-07-29T13:44:56;4.45;;;2.10;;
51252;SDS011;38936;47.808;19.936;2022-07-29T13:47:22;5.30;;;1.75;;
51252;SDS011;38936;47.808;19.936;2022-07-29T13:49:48;3.15;;;2.13;;
51252;SDS011;38936;47.808;19.936;2022-07-29T13:52:14;5.57;;;2.35;;
51252;SDS011;38936;47.808;19.936;2022-07-29T13:54:40;5.25;;;1.73;;
51252;SDS011;38936;47.808;19.936;2022-07-29T13:57:07;4.97;;;2.13;;
51252;SDS011;38936;47.808;19.936;2022-07-29T13:59:32;6.45;;;2.08;;
51252;SDS011;38936;47.808;19.936;2022-07-29T14:01:58;10.55;;;2.03;;
51252;SDS011;38936;47.808;19.936;2022-07-29T14:04:24;6.18;;;1.67;;
51252;SDS011;38936;47.808;19.936;2022-07-29T14:06:50;3.15;;;1.80;;
51252;SDS011;38936;47.808;19.936;2022-07-29T14:09:16;7.20;;;2.00;;
51252;SDS011;38936;47.808;19.936;2022-07-29T14:11:42;5.95;;;1.73;;
51252;SDS011;38936;47.808;19.936;2022-07-29T14:14:08;3.50;;;1.77;;
51252;SDS011;38936;47.808;19.936;2022-07-29T14:16:35;4.03;;;2.03;;
51252;SDS011;38936;47.808;19.936;2022-07-29T14:19:00;6.95;;;2.20;;
51252;SDS011;38936;47.808;19.936;2022-07-29T14:21:27;3.58;;;1.83;;
51252;SDS011;38936;47.808;19.936;2022-07-29T14:23:52;3.42;;;2.10;;
51252;SDS011;38936;47.808;19.936;2022-07-29T14:26:19;4.40;;;2.03;;
51252;SDS011;38936;47.808;19.936;2022-07-29T14:28:46;4.85;;;1.95;;
51252;SDS011;38936;47.808;19.936;2022-07-29T14:31:13;5.75;;;2.35;;
51252;SDS011;38936;47.808;19.936;2022-07-29T14:33:39;4.78;;;1.90;;
51252;SDS011;38936;47.808;19.936;2022-07-29T14:36:04;8.40;;;1.80;;
51252;SDS011;38936;47.808;19.936;2022-07-29T14:38:30;4.53;;;1.70;;
51252;SDS011;38936;47.808;19.936;2022-07-29T14:40:56;5.32;;;2.03;;
51252;SDS011;38936;47.808;19.936;2022-07-29T14:43:21;5.50;;;1.80;;
51252;SDS011;38936;47.808;19.936;2022-07-29T14:45:47;11.95;;;1.73;;
51252;SDS011;38936;47.808;19.936;2022-07-29T14:48:12;4.75;;;1.88;;
51252;SDS011;38936;47.808;19.936;2022-07-29T14:50:38;5.97;;;2.47;;
51252;SDS011;38936;47.808;19.936;2022-07-29T14:53:04;4.70;;;2.22;;
51252;SDS011;38936;47.808;19.936;2022-07-29T14:55:29;9.55;;;2.83;;
51252;SDS011;38936;47.808;19.936;2022-07-29T14:57:55;3.35;;;1.98;;
51252;SDS011;38936;47.808;19.936;2022-07-29T15:00:21;10.18;;;2.55;;
51252;SDS011;38936;47.808;19.936;2022-07-29T15:02:47;4.80;;;2.50;;
51252;SDS011;38936;47.808;19.936;2022-07-29T15:05:13;11.35;;;2.33;;
51252;SDS011;38936;47.808;19.936;2022-07-29T15:07:40;8.68;;;2.22;;
51252;SDS011;38936;47.808;19.936;2022-07-29T15:10:05;7.25;;;2.53;;
51252;SDS011;38936;47.808;19.936;2022-07-29T15:12:31;9.70;;;2.20;;
51252;SDS011;38936;47.808;19.936;2022-07-29T15:14:58;3.20;;;2.00;;
51252;SDS011;38936;47.808;19.936;2022-07-29T15:17:24;4.22;;;2.25;;
51252;SDS011;38936;47.808;19.936;2022-07-29T15:19:50;11.60;;;2.55;;
51252;SDS011;38936;47.808;19.936;2022-07-29T15:22:16;10.25;;;2.10;;
51252;SDS011;38936;47.808;19.936;2022-07-29T15:24:42;4.47;;;2.20;;
51252;SDS011;38936;47.808;19.936;2022-07-29T15:27:08;5.45;;;2.15;;
51252;SDS011;38936;47.808;19.936;2022-07-29T15:29:39;9.02;;;2.17;;
51252;SDS011;38936;47.808;19.936;2022-07-29T15:32:06;5.47;;;2.85;;
51252;SDS011;38936;47.808;19.936;2022-07-29T15:34:32;10.13;;;2.40;;
51252;SDS011;38936;47.808;19.936;2022-07-29T15:36:59;4.35;;;2.28;;
51252;SDS011;38936;47.808;19.936;2022-07-29T15:39:24;5.32;;;2.00;;
51252;SDS011;38936;47.808;19.936;2022-07-29T15:41:50;2.53;;;1.73;;
51252;SDS011;38936;47.808;19.936;2022-07-29T15:44:16;5.80;;;2.63;;